Federal Sable — V7WS4 — position and weather

sailwx.info

Track history (hours):
 
Tides and Currents Weather Stations Pressure Air Temp Water Temp Dewpoint Dewpoint Depression Visibility Wind Speed Wind Dir Waves Ship Positions

Federal Sable

Last reported at 2015-Jan-27 13:31 UTC. Time now 2015-Jan-27 14:28 UTC.
Position N 59°55' E 030°15'.

Length 190 m; draft 7.1 m.

Type: Cargo ship. MMSI: 538004380.

Date/timePositionNaut miles runAvg speedWind from/ knotsBaromVisibWave heightAir tempDewpointWater temp
2015-Jan-27 13:31N 59°55' E 030°15'0 0.0
2015-Jan-27 12:31N 59°55' E 030°15'0 0.0
2015-Jan-27 11:31N 59°55' E 030°15'0 0.0
2015-Jan-27 10:31N 59°55' E 030°15'0 0.0
2015-Jan-27 09:25N 59°55' E 030°15'0 0.0
2015-Jan-27 08:31N 59°55' E 030°15'0 0.0
2015-Jan-27 07:31N 59°55' E 030°15'0 0.0
2015-Jan-27 06:28N 59°55' E 030°15'0 0.0
2015-Jan-27 05:31N 59°55' E 030°15'0 0.0
2015-Jan-27 04:28N 59°55' E 030°15'0 0.0
2015-Jan-27 03:28N 59°55' E 030°15'0 0.0
2015-Jan-27 02:31N 59°55' E 030°15'0 0.0
2015-Jan-27 01:34N 59°55' E 030°15'0 0.0
2015-Jan-27 00:31N 59°55' E 030°15'0 0.0
2015-Jan-26 23:31N 59°55' E 030°15'0 0.0
2015-Jan-26 22:34N 59°55' E 030°15'0 0.0
2015-Jan-26 21:31N 59°55' E 030°15'0 0.0
2015-Jan-26 20:31N 59°55' E 030°15'0 0.0
2015-Jan-26 19:31N 59°55' E 030°15'0 0.0
2015-Jan-26 18:34N 59°55' E 030°15'0 0.0
2015-Jan-26 17:31N 59°55' E 030°15'2 1.8
2015-Jan-26 16:33N 59°54' E 030°13'88 1.8
2015-Jan-24 16:29N 60°02' E 027°18'1010.9
2015-Jan-24 15:34N 59°58' E 027°00'1111.4
2015-Jan-24 14:33N 59°59' E 026°37'1311.8
2015-Jan-24 13:28N 59°56' E 026°13'3911.5
2015-Jan-24 10:05N 59°47' E 024°57'711.2
2015-Jan-24 09:26N 59°45' E 024°43'1011.4
2015-Jan-24 08:33N 59°43' E 024°24'1212.4
2015-Jan-24 07:33N 59°40' E 024°00'1212.3
2015-Jan-24 06:33N 59°36' E 023°37'34911.5
2015-Jan-23 00:13N 55°41' E 015°35'812.2
2015-Jan-22 23:33N 55°37' E 015°22'1211.9
2015-Jan-22 22:33N 55°31' E 015°04'1212.4
2015-Jan-22 21:33N 55°25' E 014°44'1211.6
2015-Jan-22 20:33N 55°17' E 014°31'1111.3
2015-Jan-22 19:33N 55°10' E 014°14'1212.2
2015-Jan-22 18:33N 55°10' E 013°53'1412.0
2015-Jan-22 17:23N 55°10' E 013°29'1011.6
2015-Jan-22 16:33N 55°12' E 013°12'1211.9
2015-Jan-22 15:33N 55°15' E 012°52'1010.2
2015-Jan-22 14:33N 55°21' E 012°38'1111.3
2015-Jan-22 13:33N 55°32' E 012°42'9 8.7
2015-Jan-22 12:33N 55°41' E 012°41'1111.1
2015-Jan-22 11:33N 55°52' E 012°40'1110.7
2015-Jan-22 10:33N 56°03' E 012°39'9 8.8
2015-Jan-22 09:34N 56°08' E 012°27'1010.4
2015-Jan-22 08:33N 56°14' E 012°11'1111.0
2015-Jan-22 07:33N 56°24' E 012°00'1212.1
2015-Jan-22 06:33N 56°35' E 011°56'1212.1
2015-Jan-22 05:33N 56°47' E 011°50'1111.5
2015-Jan-22 04:33N 56°58' E 011°43'1211.8
2015-Jan-22 03:34N 57°09' E 011°36'1211.5
2015-Jan-22 02:33N 57°20' E 011°29'1111.3
2015-Jan-22 01:33N 57°30' E 011°19'1211.7
2015-Jan-22 00:33N 57°33' E 010°58'1110.2
2015-Jan-21 23:31N 57°36' E 010°40'0 0.2
2015-Jan-21 22:48N 57°36' E 010°39'0 0.1
2015-Jan-21 22:36N 57°36' E 010°39'0 0.0
2015-Jan-21 22:27N 57°36' E 010°39'0 0.0
2015-Jan-21 21:33N 57°36' E 010°39'0 0.0
2015-Jan-21 15:15N 57°36' E 010°39'0 0.1
2015-Jan-21 13:21N 57°36' E 010°39'0 0.0
2015-Jan-21 12:30N 57°36' E 010°39'0 0.0
2015-Jan-21 11:15N 57°36' E 010°39'0 0.0
2015-Jan-21 10:24N 57°36' E 010°39'0 0.0
2015-Jan-21 06:30N 57°36' E 010°39'0 0.0
2015-Jan-21 05:33N 57°36' E 010°39'0 0.0
2015-Jan-21 04:06N 57°36' E 010°39'0 0.0
2015-Jan-21 03:33N 57°36' E 010°39'0 0.0
2015-Jan-21 02:15N 57°36' E 010°39'0 0.0
2015-Jan-21 01:15N 57°36' E 010°39'0 0.0
2015-Jan-21 00:24N 57°36' E 010°39'0 0.0
2015-Jan-20 23:33N 57°36' E 010°39'0 0.0
2015-Jan-20 22:27N 57°36' E 010°39'0 0.0
2015-Jan-20 21:15N 57°36' E 010°39'0 0.0
2015-Jan-20 20:33N 57°36' E 010°39'0 0.0
2015-Jan-20 17:12N 57°36' E 010°39'0 0.0
2015-Jan-20 15:06N 57°36' E 010°39'0 0.0
2015-Jan-20 14:12N 57°36' E 010°39'0 0.0
2015-Jan-20 13:27N 57°36' E 010°39'0 0.0
2015-Jan-20 12:33N 57°36' E 010°39'0 0.0
2015-Jan-20 08:18N 57°36' E 010°39'0 0.0
2015-Jan-20 07:30N 57°36' E 010°39'0 0.0
2015-Jan-20 06:33N 57°36' E 010°39'0 0.0
2015-Jan-20 05:30N 57°36' E 010°39'0 0.0
2015-Jan-20 04:18N 57°36' E 010°39'0 0.0
2015-Jan-20 03:18N 57°36' E 010°39'0 0.0
2015-Jan-20 01:31N 57°36' E 010°39'0 0.0
2015-Jan-20 00:33N 57°36' E 010°39'0 0.0
2015-Jan-19 23:33N 57°36' E 010°39'0 0.0
2015-Jan-19 22:27N 57°36' E 010°39'0 0.0
2015-Jan-19 21:06N 57°36' E 010°39'0 0.0
2015-Jan-19 20:09N 57°36' E 010°39'0 0.1
2015-Jan-19 19:33N 57°36' E 010°39'0 0.0
2015-Jan-19 18:33N 57°36' E 010°39'0 0.0
2015-Jan-19 17:21N 57°36' E 010°39'0 0.0
2015-Jan-19 16:09N 57°36' E 010°39'0 0.0
2015-Jan-19 15:24N 57°36' E 010°39'0 0.0
2015-Jan-19 14:09N 57°36' E 010°39'0 0.0
2015-Jan-19 13:33N 57°36' E 010°39'0 0.0
2015-Jan-19 12:30N 57°36' E 010°39'0 0.0
2015-Jan-19 11:27N 57°36' E 010°39'0 0.0
2015-Jan-19 10:27N 57°36' E 010°39'0 0.0
2015-Jan-19 09:24N 57°36' E 010°39'0 0.0
2015-Jan-19 08:27N 57°36' E 010°39'0 0.0
2015-Jan-19 07:33N 57°36' E 010°39'0 0.0
2015-Jan-19 06:27N 57°36' E 010°39'0 0.2
2015-Jan-19 05:33N 57°36' E 010°40'0 0.1
2015-Jan-19 04:27N 57°36' E 010°40'0 0.0
2015-Jan-19 03:33N 57°36' E 010°40'0 0.0
2015-Jan-19 02:30N 57°36' E 010°40'0 0.0
2015-Jan-19 01:21N 57°36' E 010°40'0 0.0
2015-Jan-19 00:27N 57°36' E 010°40'0 0.0
2015-Jan-18 23:24N 57°36' E 010°40'0 0.0
2015-Jan-18 22:24N 57°36' E 010°40'0 0.0
2015-Jan-18 21:33N 57°36' E 010°40'0 0.0
2015-Jan-18 20:33N 57°36' E 010°40'0 0.0
2015-Jan-18 19:27N 57°36' E 010°40'0 0.0
2015-Jan-18 18:33N 57°36' E 010°40'0 0.0
2015-Jan-18 17:33N 57°36' E 010°40'0 0.0
2015-Jan-18 16:06N 57°36' E 010°40'0 0.0
2015-Jan-18 15:33N 57°36' E 010°40'0 0.0
2015-Jan-18 14:33N 57°36' E 010°40'0 0.0
2015-Jan-18 13:33N 57°36' E 010°40'0 0.0
2015-Jan-18 12:33N 57°36' E 010°40'0 0.0
2015-Jan-18 11:27N 57°36' E 010°40'0 0.0
2015-Jan-18 10:21N 57°36' E 010°40'0 0.0
2015-Jan-18 09:24N 57°36' E 010°40'0 0.0
2015-Jan-18 03:15N 57°36' E 010°40'0 0.0
2015-Jan-17 23:24N 57°36' E 010°40'0 0.0
2015-Jan-17 22:30N 57°36' E 010°40'0 0.0
2015-Jan-17 21:30N 57°36' E 010°40'0 0.0
2015-Jan-17 19:24N 57°36' E 010°40'0 0.0
2015-Jan-17 18:21N 57°36' E 010°40'0 0.0
2015-Jan-17 17:03N 57°36' E 010°40'0 0.0
2015-Jan-17 15:30N 57°36' E 010°40'0 0.0
2015-Jan-17 14:30N 57°36' E 010°40'0 0.0
2015-Jan-17 13:33N 57°36' E 010°40'  
Track history (hours):
 
Tides and Currents Weather Stations Pressure Air Temp Water Temp Dewpoint Dewpoint Depression Visibility Wind Speed Wind Dir Waves Ship Positions

Federal Sable

Last reported at 2015-Jan-27 13:31 UTC. Time now 2015-Jan-27 14:28 UTC.
Position N 59°55' E 030°15'.

Length 190 m; draft 7.1 m.

Type: Cargo ship. MMSI: 538004380.

Date/timePositionNaut miles runAvg speedWind from/ knotsBaromVisibWave heightAir tempDewpointWater temp
2015-Jan-27 13:31N 59°55' E 030°15'0 0.0
2015-Jan-27 12:31N 59°55' E 030°15'0 0.0
2015-Jan-27 11:31N 59°55' E 030°15'0 0.0
2015-Jan-27 10:31N 59°55' E 030°15'0 0.0
2015-Jan-27 09:25N 59°55' E 030°15'0 0.0
2015-Jan-27 08:31N 59°55' E 030°15'0 0.0
2015-Jan-27 07:31N 59°55' E 030°15'0 0.0
2015-Jan-27 06:28N 59°55' E 030°15'0 0.0
2015-Jan-27 05:31N 59°55' E 030°15'0 0.0
2015-Jan-27 04:28N 59°55' E 030°15'0 0.0
2015-Jan-27 03:28N 59°55' E 030°15'0 0.0
2015-Jan-27 02:31N 59°55' E 030°15'0 0.0
2015-Jan-27 01:34N 59°55' E 030°15'0 0.0
2015-Jan-27 00:31N 59°55' E 030°15'0 0.0
2015-Jan-26 23:31N 59°55' E 030°15'0 0.0
2015-Jan-26 22:34N 59°55' E 030°15'0 0.0
2015-Jan-26 21:31N 59°55' E 030°15'0 0.0
2015-Jan-26 20:31N 59°55' E 030°15'0 0.0
2015-Jan-26 19:31N 59°55' E 030°15'0 0.0
2015-Jan-26 18:34N 59°55' E 030°15'0 0.0
2015-Jan-26 17:31N 59°55' E 030°15'2 1.8
2015-Jan-26 16:33N 59°54' E 030°13'88 1.8
2015-Jan-24 16:29N 60°02' E 027°18'1010.9
2015-Jan-24 15:34N 59°58' E 027°00'1111.4
2015-Jan-24 14:33N 59°59' E 026°37'1311.8
2015-Jan-24 13:28N 59°56' E 026°13'3911.5
2015-Jan-24 10:05N 59°47' E 024°57'711.2
2015-Jan-24 09:26N 59°45' E 024°43'1011.4
2015-Jan-24 08:33N 59°43' E 024°24'1212.4
2015-Jan-24 07:33N 59°40' E 024°00'1212.3
2015-Jan-24 06:33N 59°36' E 023°37'34911.5
2015-Jan-23 00:13N 55°41' E 015°35'812.2
2015-Jan-22 23:33N 55°37' E 015°22'1211.9
2015-Jan-22 22:33N 55°31' E 015°04'1212.4
2015-Jan-22 21:33N 55°25' E 014°44'1211.6
2015-Jan-22 20:33N 55°17' E 014°31'1111.3
2015-Jan-22 19:33N 55°10' E 014°14'1212.2
2015-Jan-22 18:33N 55°10' E 013°53'1412.0
2015-Jan-22 17:23N 55°10' E 013°29'1011.6
2015-Jan-22 16:33N 55°12' E 013°12'1211.9
2015-Jan-22 15:33N 55°15' E 012°52'1010.2
2015-Jan-22 14:33N 55°21' E 012°38'1111.3
2015-Jan-22 13:33N 55°32' E 012°42'9 8.7
2015-Jan-22 12:33N 55°41' E 012°41'1111.1
2015-Jan-22 11:33N 55°52' E 012°40'1110.7
2015-Jan-22 10:33N 56°03' E 012°39'9 8.8
2015-Jan-22 09:34N 56°08' E 012°27'1010.4
2015-Jan-22 08:33N 56°14' E 012°11'1111.0
2015-Jan-22 07:33N 56°24' E 012°00'1212.1
2015-Jan-22 06:33N 56°35' E 011°56'1212.1
2015-Jan-22 05:33N 56°47' E 011°50'1111.5
2015-Jan-22 04:33N 56°58' E 011°43'1211.8
2015-Jan-22 03:34N 57°09' E 011°36'1211.5
2015-Jan-22 02:33N 57°20' E 011°29'1111.3
2015-Jan-22 01:33N 57°30' E 011°19'1211.7
2015-Jan-22 00:33N 57°33' E 010°58'1110.2
2015-Jan-21 23:31N 57°36' E 010°40'0 0.2
2015-Jan-21 22:48N 57°36' E 010°39'0 0.1
2015-Jan-21 22:36N 57°36' E 010°39'0 0.0
2015-Jan-21 22:27N 57°36' E 010°39'0 0.0
2015-Jan-21 21:33N 57°36' E 010°39'0 0.0
2015-Jan-21 15:15N 57°36' E 010°39'0 0.1
2015-Jan-21 13:21N 57°36' E 010°39'0 0.0
2015-Jan-21 12:30N 57°36' E 010°39'0 0.0
2015-Jan-21 11:15N 57°36' E 010°39'0 0.0
2015-Jan-21 10:24N 57°36' E 010°39'0 0.0
2015-Jan-21 06:30N 57°36' E 010°39'0 0.0
2015-Jan-21 05:33N 57°36' E 010°39'0 0.0
2015-Jan-21 04:06N 57°36' E 010°39'0 0.0
2015-Jan-21 03:33N 57°36' E 010°39'0 0.0
2015-Jan-21 02:15N 57°36' E 010°39'0 0.0
2015-Jan-21 01:15N 57°36' E 010°39'0 0.0
2015-Jan-21 00:24N 57°36' E 010°39'0 0.0
2015-Jan-20 23:33N 57°36' E 010°39'0 0.0
2015-Jan-20 22:27N 57°36' E 010°39'0 0.0
2015-Jan-20 21:15N 57°36' E 010°39'0 0.0
2015-Jan-20 20:33N 57°36' E 010°39'0 0.0
2015-Jan-20 17:12N 57°36' E 010°39'0 0.0
2015-Jan-20 15:06N 57°36' E 010°39'0 0.0
2015-Jan-20 14:12N 57°36' E 010°39'0 0.0
2015-Jan-20 13:27N 57°36' E 010°39'0 0.0
2015-Jan-20 12:33N 57°36' E 010°39'0 0.0
2015-Jan-20 08:18N 57°36' E 010°39'0 0.0
2015-Jan-20 07:30N 57°36' E 010°39'0 0.0
2015-Jan-20 06:33N 57°36' E 010°39'0 0.0
2015-Jan-20 05:30N 57°36' E 010°39'0 0.0
2015-Jan-20 04:18N 57°36' E 010°39'0 0.0
2015-Jan-20 03:18N 57°36' E 010°39'0 0.0
2015-Jan-20 01:31N 57°36' E 010°39'0 0.0
2015-Jan-20 00:33N 57°36' E 010°39'0 0.0
2015-Jan-19 23:33N 57°36' E 010°39'0 0.0
2015-Jan-19 22:27N 57°36' E 010°39'0 0.0
2015-Jan-19 21:06N 57°36' E 010°39'0 0.0
2015-Jan-19 20:09N 57°36' E 010°39'0 0.1
2015-Jan-19 19:33N 57°36' E 010°39'0 0.0
2015-Jan-19 18:33N 57°36' E 010°39'0 0.0
2015-Jan-19 17:21N 57°36' E 010°39'0 0.0
2015-Jan-19 16:09N 57°36' E 010°39'0 0.0
2015-Jan-19 15:24N 57°36' E 010°39'0 0.0
2015-Jan-19 14:09N 57°36' E 010°39'0 0.0
2015-Jan-19 13:33N 57°36' E 010°39'0 0.0
2015-Jan-19 12:30N 57°36' E 010°39'0 0.0
2015-Jan-19 11:27N 57°36' E 010°39'0 0.0
2015-Jan-19 10:27N 57°36' E 010°39'0 0.0
2015-Jan-19 09:24N 57°36' E 010°39'0 0.0
2015-Jan-19 08:27N 57°36' E 010°39'0 0.0
2015-Jan-19 07:33N 57°36' E 010°39'0 0.0
2015-Jan-19 06:27N 57°36' E 010°39'0 0.2
2015-Jan-19 05:33N 57°36' E 010°40'0 0.1
2015-Jan-19 04:27N 57°36' E 010°40'0 0.0
2015-Jan-19 03:33N 57°36' E 010°40'0 0.0
2015-Jan-19 02:30N 57°36' E 010°40'0 0.0
2015-Jan-19 01:21N 57°36' E 010°40'0 0.0
2015-Jan-19 00:27N 57°36' E 010°40'0 0.0
2015-Jan-18 23:24N 57°36' E 010°40'0 0.0
2015-Jan-18 22:24N 57°36' E 010°40'0 0.0
2015-Jan-18 21:33N 57°36' E 010°40'0 0.0
2015-Jan-18 20:33N 57°36' E 010°40'0 0.0
2015-Jan-18 19:27N 57°36' E 010°40'0 0.0
2015-Jan-18 18:33N 57°36' E 010°40'0 0.0
2015-Jan-18 17:33N 57°36' E 010°40'0 0.0
2015-Jan-18 16:06N 57°36' E 010°40'0 0.0
2015-Jan-18 15:33N 57°36' E 010°40'0 0.0
2015-Jan-18 14:33N 57°36' E 010°40'0 0.0
2015-Jan-18 13:33N 57°36' E 010°40'0 0.0
2015-Jan-18 12:33N 57°36' E 010°40'0 0.0
2015-Jan-18 11:27N 57°36' E 010°40'0 0.0
2015-Jan-18 10:21N 57°36' E 010°40'0 0.0
2015-Jan-18 09:24N 57°36' E 010°40'0 0.0
2015-Jan-18 03:15N 57°36' E 010°40'0 0.0
2015-Jan-17 23:24N 57°36' E 010°40'0 0.0
2015-Jan-17 22:30N 57°36' E 010°40'0 0.0
2015-Jan-17 21:30N 57°36' E 010°40'0 0.0
2015-Jan-17 19:24N 57°36' E 010°40'0 0.0
2015-Jan-17 18:21N 57°36' E 010°40'0 0.0
2015-Jan-17 17:03N 57°36' E 010°40'0 0.0
2015-Jan-17 15:30N 57°36' E 010°40'0 0.0
2015-Jan-17 14:30N 57°36' E 010°40'0 0.0
2015-Jan-17 13:33N 57°36' E 010°40'  

Dump ship's entire track history